sensor_id;sensor_type;location;lat;lon;timestamp;P1;durP1;ratioP1;P2;durP2;ratioP2
12597;SDS011;6364;53.590;9.956;2023-04-27T00:00:35;10.77;;;3.50;;
12597;SDS011;6364;53.590;9.956;2023-04-27T00:03:01;11.02;;;3.67;;
12597;SDS011;6364;53.590;9.956;2023-04-27T00:05:29;8.50;;;3.70;;
12597;SDS011;6364;53.590;9.956;2023-04-27T00:07:58;11.60;;;4.00;;
12597;SDS011;6364;53.590;9.956;2023-04-27T00:10:23;7.72;;;3.22;;
12597;SDS011;6364;53.590;9.956;2023-04-27T00:12:49;14.15;;;3.95;;
12597;SDS011;6364;53.590;9.956;2023-04-27T00:15:14;6.82;;;3.30;;
12597;SDS011;6364;53.590;9.956;2023-04-27T00:17:40;6.05;;;3.35;;
12597;SDS011;6364;53.590;9.956;2023-04-27T00:20:07;6.85;;;3.83;;
12597;SDS011;6364;53.590;9.956;2023-04-27T00:22:35;10.90;;;3.80;;
12597;SDS011;6364;53.590;9.956;2023-04-27T00:25:01;9.45;;;3.97;;
12597;SDS011;6364;53.590;9.956;2023-04-27T00:27:27;10.93;;;3.97;;
12597;SDS011;6364;53.590;9.956;2023-04-27T00:29:52;8.52;;;3.50;;
12597;SDS011;6364;53.590;9.956;2023-04-27T00:32:18;10.75;;;3.55;;
12597;SDS011;6364;53.590;9.956;2023-04-27T00:34:43;9.13;;;4.00;;
12597;SDS011;6364;53.590;9.956;2023-04-27T00:37:08;9.52;;;3.65;;
12597;SDS011;6364;53.590;9.956;2023-04-27T00:39:34;12.23;;;4.13;;
12597;SDS011;6364;53.590;9.956;2023-04-27T00:42:00;11.38;;;3.53;;
12597;SDS011;6364;53.590;9.956;2023-04-27T00:44:25;10.07;;;3.38;;
12597;SDS011;6364;53.590;9.956;2023-04-27T00:46:51;11.82;;;3.65;;
12597;SDS011;6364;53.590;9.956;2023-04-27T00:49:18;7.05;;;3.85;;
12597;SDS011;6364;53.590;9.956;2023-04-27T00:51:44;6.65;;;3.55;;
12597;SDS011;6364;53.590;9.956;2023-04-27T00:54:09;10.52;;;3.85;;
12597;SDS011;6364;53.590;9.956;2023-04-27T00:56:35;9.35;;;3.50;;
12597;SDS011;6364;53.590;9.956;2023-04-27T00:59:00;10.85;;;3.65;;
12597;SDS011;6364;53.590;9.956;2023-04-27T01:01:26;13.38;;;4.22;;
12597;SDS011;6364;53.590;9.956;2023-04-27T01:03:53;11.13;;;4.10;;
12597;SDS011;6364;53.590;9.956;2023-04-27T01:06:18;14.95;;;4.03;;
12597;SDS011;6364;53.590;9.956;2023-04-27T01:08:44;8.10;;;3.53;;
12597;SDS011;6364;53.590;9.956;2023-04-27T01:11:10;12.20;;;4.10;;
12597;SDS011;6364;53.590;9.956;2023-04-27T01:13:36;9.75;;;3.92;;
12597;SDS011;6364;53.590;9.956;2023-04-27T01:16:01;6.93;;;4.25;;
12597;SDS011;6364;53.590;9.956;2023-04-27T01:18:26;12.07;;;4.43;;
12597;SDS011;6364;53.590;9.956;2023-04-27T01:20:52;13.50;;;4.15;;
12597;SDS011;6364;53.590;9.956;2023-04-27T01:23:17;9.20;;;4.38;;
12597;SDS011;6364;53.590;9.956;2023-04-27T01:25:42;7.75;;;4.38;;
12597;SDS011;6364;53.590;9.956;2023-04-27T01:28:07;7.70;;;4.13;;
12597;SDS011;6364;53.590;9.956;2023-04-27T01:30:33;8.77;;;3.95;;
12597;SDS011;6364;53.590;9.956;2023-04-27T01:32:58;8.02;;;4.30;;
12597;SDS011;6364;53.590;9.956;2023-04-27T01:35:23;9.48;;;4.15;;
12597;SDS011;6364;53.590;9.956;2023-04-27T01:37:49;7.57;;;4.30;;
12597;SDS011;6364;53.590;9.956;2023-04-27T01:40:15;11.65;;;4.60;;
12597;SDS011;6364;53.590;9.956;2023-04-27T01:42:40;11.63;;;4.45;;
12597;SDS011;6364;53.590;9.956;2023-04-27T01:45:06;11.00;;;4.85;;
12597;SDS011;6364;53.590;9.956;2023-04-27T01:47:32;10.38;;;3.95;;
12597;SDS011;6364;53.590;9.956;2023-04-27T01:49:57;9.88;;;3.95;;
12597;SDS011;6364;53.590;9.956;2023-04-27T01:52:22;7.68;;;4.18;;
12597;SDS011;6364;53.590;9.956;2023-04-27T01:54:48;10.23;;;4.13;;
12597;SDS011;6364;53.590;9.956;2023-04-27T01:57:13;9.85;;;4.53;;
12597;SDS011;6364;53.590;9.956;2023-04-27T01:59:41;12.23;;;4.28;;
12597;SDS011;6364;53.590;9.956;2023-04-27T02:02:06;9.88;;;4.60;;
12597;SDS011;6364;53.590;9.956;2023-04-27T02:04:31;8.60;;;4.43;;
12597;SDS011;6364;53.590;9.956;2023-04-27T02:06:57;10.85;;;4.55;;
12597;SDS011;6364;53.590;9.956;2023-04-27T02:09:22;12.50;;;4.15;;
12597;SDS011;6364;53.590;9.956;2023-04-27T02:11:47;10.30;;;4.35;;
12597;SDS011;6364;53.590;9.956;2023-04-27T02:14:13;12.20;;;5.03;;
12597;SDS011;6364;53.590;9.956;2023-04-27T02:16:38;12.43;;;4.38;;
12597;SDS011;6364;53.590;9.956;2023-04-27T02:19:03;12.00;;;5.18;;
12597;SDS011;6364;53.590;9.956;2023-04-27T02:21:29;9.13;;;4.30;;
12597;SDS011;6364;53.590;9.956;2023-04-27T02:23:54;10.65;;;4.95;;
12597;SDS011;6364;53.590;9.956;2023-04-27T02:26:20;11.23;;;5.30;;
12597;SDS011;6364;53.590;9.956;2023-04-27T02:28:46;7.13;;;3.97;;
12597;SDS011;6364;53.590;9.956;2023-04-27T02:31:12;11.52;;;4.80;;
12597;SDS011;6364;53.590;9.956;2023-04-27T02:33:38;12.35;;;4.65;;
12597;SDS011;6364;53.590;9.956;2023-04-27T02:36:04;8.20;;;4.63;;
12597;SDS011;6364;53.590;9.956;2023-04-27T02:38:29;13.40;;;4.63;;
12597;SDS011;6364;53.590;9.956;2023-04-27T02:40:55;10.43;;;4.63;;
12597;SDS011;6364;53.590;9.956;2023-04-27T02:43:20;10.35;;;4.15;;
12597;SDS011;6364;53.590;9.956;2023-04-27T02:45:46;10.75;;;4.10;;
12597;SDS011;6364;53.590;9.956;2023-04-27T02:48:11;10.38;;;4.43;;
12597;SDS011;6364;53.590;9.956;2023-04-27T02:50:40;6.65;;;4.65;;
12597;SDS011;6364;53.590;9.956;2023-04-27T02:53:06;8.90;;;3.70;;
12597;SDS011;6364;53.590;9.956;2023-04-27T02:55:31;9.90;;;4.03;;
12597;SDS011;6364;53.590;9.956;2023-04-27T02:57:56;9.02;;;3.60;;
12597;SDS011;6364;53.590;9.956;2023-04-27T03:00:22;7.97;;;3.92;;
12597;SDS011;6364;53.590;9.956;2023-04-27T03:02:47;6.22;;;3.55;;
12597;SDS011;6364;53.590;9.956;2023-04-27T03:05:13;7.63;;;3.47;;
12597;SDS011;6364;53.590;9.956;2023-04-27T03:07:38;6.38;;;3.42;;
12597;SDS011;6364;53.590;9.956;2023-04-27T03:10:03;7.82;;;3.30;;
12597;SDS011;6364;53.590;9.956;2023-04-27T03:12:29;9.45;;;3.70;;
12597;SDS011;6364;53.590;9.956;2023-04-27T03:14:54;7.18;;;3.17;;
12597;SDS011;6364;53.590;9.956;2023-04-27T03:17:20;7.45;;;3.33;;
12597;SDS011;6364;53.590;9.956;2023-04-27T03:19:46;9.27;;;3.53;;
12597;SDS011;6364;53.590;9.956;2023-04-27T03:22:12;8.70;;;3.50;;
12597;SDS011;6364;53.590;9.956;2023-04-27T03:24:37;8.60;;;3.60;;
12597;SDS011;6364;53.590;9.956;2023-04-27T03:27:02;9.20;;;3.40;;
12597;SDS011;6364;53.590;9.956;2023-04-27T03:29:28;7.13;;;3.22;;
12597;SDS011;6364;53.590;9.956;2023-04-27T03:31:53;8.70;;;3.58;;
12597;SDS011;6364;53.590;9.956;2023-04-27T03:34:19;5.45;;;3.28;;
12597;SDS011;6364;53.590;9.956;2023-04-27T03:36:45;11.32;;;4.07;;
12597;SDS011;6364;53.590;9.956;2023-04-27T03:39:11;9.75;;;4.60;;
12597;SDS011;6364;53.590;9.956;2023-04-27T03:41:36;9.13;;;4.70;;
12597;SDS011;6364;53.590;9.956;2023-04-27T03:44:02;7.75;;;4.18;;
12597;SDS011;6364;53.590;9.956;2023-04-27T03:46:27;11.95;;;4.38;;
12597;SDS011;6364;53.590;9.956;2023-04-27T03:48:52;13.10;;;4.72;;
12597;SDS011;6364;53.590;9.956;2023-04-27T03:51:18;10.32;;;4.80;;
12597;SDS011;6364;53.590;9.956;2023-04-27T03:53:43;11.07;;;4.57;;
12597;SDS011;6364;53.590;9.956;2023-04-27T03:56:08;8.73;;;4.90;;
12597;SDS011;6364;53.590;9.956;2023-04-27T03:58:34;11.32;;;4.90;;
12597;SDS011;6364;53.590;9.956;2023-04-27T04:00:59;14.65;;;5.90;;
12597;SDS011;6364;53.590;9.956;2023-04-27T04:03:25;14.35;;;4.85;;
12597;SDS011;6364;53.590;9.956;2023-04-27T04:05:50;14.40;;;5.35;;
12597;SDS011;6364;53.590;9.956;2023-04-27T04:08:15;12.90;;;5.60;;
12597;SDS011;6364;53.590;9.956;2023-04-27T04:10:41;9.77;;;6.00;;
12597;SDS011;6364;53.590;9.956;2023-04-27T04:13:06;8.88;;;5.07;;
12597;SDS011;6364;53.590;9.956;2023-04-27T04:15:31;10.88;;;5.60;;
12597;SDS011;6364;53.590;9.956;2023-04-27T04:17:57;11.85;;;5.50;;
12597;SDS011;6364;53.590;9.956;2023-04-27T04:20:22;11.45;;;6.10;;
12597;SDS011;6364;53.590;9.956;2023-04-27T04:22:48;9.38;;;5.65;;
12597;SDS011;6364;53.590;9.956;2023-04-27T04:25:13;13.10;;;6.22;;
12597;SDS011;6364;53.590;9.956;2023-04-27T04:27:39;13.75;;;5.95;;
12597;SDS011;6364;53.590;9.956;2023-04-27T04:30:05;17.95;;;6.50;;
12597;SDS011;6364;53.590;9.956;2023-04-27T04:32:31;16.90;;;6.15;;
12597;SDS011;6364;53.590;9.956;2023-04-27T04:34:57;13.25;;;5.60;;
12597;SDS011;6364;53.590;9.956;2023-04-27T04:37:25;13.40;;;5.57;;
12597;SDS011;6364;53.590;9.956;2023-04-27T04:39:51;9.65;;;5.43;;
12597;SDS011;6364;53.590;9.956;2023-04-27T04:42:16;12.57;;;6.00;;
12597;SDS011;6364;53.590;9.956;2023-04-27T04:44:41;13.57;;;5.75;;
12597;SDS011;6364;53.590;9.956;2023-04-27T04:47:07;16.88;;;6.13;;
12597;SDS011;6364;53.590;9.956;2023-04-27T04:49:33;11.35;;;6.28;;
12597;SDS011;6364;53.590;9.956;2023-04-27T04:51:59;15.10;;;6.70;;
12597;SDS011;6364;53.590;9.956;2023-04-27T04:54:24;16.80;;;5.85;;
12597;SDS011;6364;53.590;9.956;2023-04-27T04:56:50;17.02;;;5.85;;
12597;SDS011;6364;53.590;9.956;2023-04-27T04:59:15;15.00;;;6.60;;
12597;SDS011;6364;53.590;9.956;2023-04-27T05:01:41;20.40;;;7.32;;
12597;SDS011;6364;53.590;9.956;2023-04-27T05:04:07;13.68;;;6.88;;
12597;SDS011;6364;53.590;9.956;2023-04-27T05:06:32;13.75;;;7.15;;
12597;SDS011;6364;53.590;9.956;2023-04-27T05:08:57;15.15;;;7.22;;
12597;SDS011;6364;53.590;9.956;2023-04-27T05:11:23;15.55;;;7.13;;
12597;SDS011;6364;53.590;9.956;2023-04-27T05:13:48;24.05;;;7.68;;
12597;SDS011;6364;53.590;9.956;2023-04-27T05:16:13;17.73;;;7.88;;
12597;SDS011;6364;53.590;9.956;2023-04-27T05:18:39;19.85;;;7.15;;
12597;SDS011;6364;53.590;9.956;2023-04-27T05:21:04;14.68;;;7.38;;
12597;SDS011;6364;53.590;9.956;2023-04-27T05:23:30;18.23;;;7.50;;
12597;SDS011;6364;53.590;9.956;2023-04-27T05:25:55;19.85;;;8.00;;
12597;SDS011;6364;53.590;9.956;2023-04-27T05:28:20;14.85;;;6.80;;
12597;SDS011;6364;53.590;9.956;2023-04-27T05:30:46;14.63;;;7.43;;
12597;SDS011;6364;53.590;9.956;2023-04-27T05:33:11;15.07;;;7.15;;
12597;SDS011;6364;53.590;9.956;2023-04-27T05:35:36;13.85;;;5.82;;
12597;SDS011;6364;53.590;9.956;2023-04-27T05:38:02;18.52;;;6.97;;
12597;SDS011;6364;53.590;9.956;2023-04-27T05:40:27;12.63;;;6.50;;
12597;SDS011;6364;53.590;9.956;2023-04-27T05:42:53;14.85;;;6.13;;
12597;SDS011;6364;53.590;9.956;2023-04-27T05:45:18;12.40;;;6.18;;
12597;SDS011;6364;53.590;9.956;2023-04-27T05:47:44;14.90;;;6.05;;
12597;SDS011;6364;53.590;9.956;2023-04-27T05:50:09;13.05;;;6.38;;
12597;SDS011;6364;53.590;9.956;2023-04-27T05:52:35;12.07;;;6.07;;
12597;SDS011;6364;53.590;9.956;2023-04-27T05:55:00;12.73;;;6.35;;
12597;SDS011;6364;53.590;9.956;2023-04-27T05:57:26;10.75;;;6.10;;
12597;SDS011;6364;53.590;9.956;2023-04-27T05:59:51;13.55;;;6.50;;
12597;SDS011;6364;53.590;9.956;2023-04-27T06:02:17;19.40;;;8.10;;
12597;SDS011;6364;53.590;9.956;2023-04-27T06:04:43;18.77;;;6.88;;
12597;SDS011;6364;53.590;9.956;2023-04-27T06:07:09;11.43;;;5.60;;
12597;SDS011;6364;53.590;9.956;2023-04-27T06:09:35;16.85;;;6.78;;
12597;SDS011;6364;53.590;9.956;2023-04-27T06:12:01;14.38;;;6.47;;
12597;SDS011;6364;53.590;9.956;2023-04-27T06:14:28;13.48;;;5.93;;
12597;SDS011;6364;53.590;9.956;2023-04-27T06:16:53;13.35;;;6.03;;
12597;SDS011;6364;53.590;9.956;2023-04-27T06:19:18;14.13;;;5.90;;
12597;SDS011;6364;53.590;9.956;2023-04-27T06:21:44;12.30;;;5.38;;
12597;SDS011;6364;53.590;9.956;2023-04-27T06:24:10;18.35;;;5.32;;
12597;SDS011;6364;53.590;9.956;2023-04-27T06:26:35;13.13;;;4.75;;
12597;SDS011;6364;53.590;9.956;2023-04-27T06:29:01;10.38;;;4.68;;
12597;SDS011;6364;53.590;9.956;2023-04-27T06:31:28;9.02;;;4.50;;
12597;SDS011;6364;53.590;9.956;2023-04-27T06:33:53;10.88;;;4.75;;
12597;SDS011;6364;53.590;9.956;2023-04-27T06:36:18;12.98;;;4.90;;
12597;SDS011;6364;53.590;9.956;2023-04-27T06:38:44;12.00;;;4.60;;
12597;SDS011;6364;53.590;9.956;2023-04-27T06:41:10;14.13;;;4.82;;
12597;SDS011;6364;53.590;9.956;2023-04-27T06:43:35;13.55;;;5.53;;
12597;SDS011;6364;53.590;9.956;2023-04-27T06:46:00;13.32;;;4.90;;
12597;SDS011;6364;53.590;9.956;2023-04-27T06:48:26;11.38;;;4.95;;
12597;SDS011;6364;53.590;9.956;2023-04-27T06:50:51;7.57;;;4.20;;
12597;SDS011;6364;53.590;9.956;2023-04-27T06:53:16;13.70;;;5.43;;
12597;SDS011;6364;53.590;9.956;2023-04-27T06:55:42;17.30;;;5.00;;
12597;SDS011;6364;53.590;9.956;2023-04-27T06:58:07;9.45;;;4.57;;
12597;SDS011;6364;53.590;9.956;2023-04-27T07:00:33;13.88;;;4.63;;
12597;SDS011;6364;53.590;9.956;2023-04-27T07:02:58;10.15;;;4.50;;
12597;SDS011;6364;53.590;9.956;2023-04-27T07:05:23;7.90;;;3.75;;
12597;SDS011;6364;53.590;9.956;2023-04-27T07:07:49;13.77;;;4.28;;
12597;SDS011;6364;53.590;9.956;2023-04-27T07:10:14;9.88;;;4.47;;
12597;SDS011;6364;53.590;9.956;2023-04-27T07:12:40;7.45;;;3.75;;
12597;SDS011;6364;53.590;9.956;2023-04-27T07:15:07;11.25;;;4.18;;
12597;SDS011;6364;53.590;9.956;2023-04-27T07:17:33;9.50;;;4.45;;
12597;SDS011;6364;53.590;9.956;2023-04-27T07:19:58;12.73;;;3.85;;
12597;SDS011;6364;53.590;9.956;2023-04-27T07:22:25;8.02;;;3.83;;
12597;SDS011;6364;53.590;9.956;2023-04-27T07:24:50;9.75;;;3.38;;
12597;SDS011;6364;53.590;9.956;2023-04-27T07:27:15;9.57;;;3.83;;
12597;SDS011;6364;53.590;9.956;2023-04-27T07:29:41;6.38;;;3.17;;
12597;SDS011;6364;53.590;9.956;2023-04-27T07:32:07;7.88;;;3.67;;
12597;SDS011;6364;53.590;9.956;2023-04-27T07:34:33;4.82;;;3.08;;
12597;SDS011;6364;53.590;9.956;2023-04-27T07:36:59;7.63;;;2.92;;
12597;SDS011;6364;53.590;9.956;2023-04-27T07:39:25;6.90;;;3.17;;
12597;SDS011;6364;53.590;9.956;2023-04-27T07:41:51;6.20;;;2.92;;
12597;SDS011;6364;53.590;9.956;2023-04-27T07:44:17;12.02;;;3.15;;
12597;SDS011;6364;53.590;9.956;2023-04-27T07:46:44;4.82;;;2.80;;
12597;SDS011;6364;53.590;9.956;2023-04-27T07:49:11;5.40;;;2.75;;
12597;SDS011;6364;53.590;9.956;2023-04-27T07:51:37;7.20;;;2.80;;
12597;SDS011;6364;53.590;9.956;2023-04-27T07:54:02;9.30;;;2.97;;
12597;SDS011;6364;53.590;9.956;2023-04-27T07:56:28;6.53;;;2.30;;
12597;SDS011;6364;53.590;9.956;2023-04-27T07:58:53;7.68;;;2.58;;
12597;SDS011;6364;53.590;9.956;2023-04-27T08:01:18;6.85;;;2.40;;
12597;SDS011;6364;53.590;9.956;2023-04-27T08:03:45;9.27;;;2.65;;
12597;SDS011;6364;53.590;9.956;2023-04-27T08:06:10;4.70;;;2.67;;
12597;SDS011;6364;53.590;9.956;2023-04-27T08:08:35;9.93;;;2.90;;
12597;SDS011;6364;53.590;9.956;2023-04-27T08:11:01;6.68;;;2.58;;
12597;SDS011;6364;53.590;9.956;2023-04-27T08:13:26;4.78;;;2.15;;
12597;SDS011;6364;53.590;9.956;2023-04-27T08:15:51;4.25;;;2.25;;
12597;SDS011;6364;53.590;9.956;2023-04-27T08:18:22;6.22;;;2.53;;
12597;SDS011;6364;53.590;9.956;2023-04-27T08:20:47;7.78;;;2.92;;
12597;SDS011;6364;53.590;9.956;2023-04-27T08:23:13;6.97;;;3.15;;
12597;SDS011;6364;53.590;9.956;2023-04-27T08:25:38;7.97;;;3.00;;
12597;SDS011;6364;53.590;9.956;2023-04-27T08:28:03;4.63;;;2.10;;
12597;SDS011;6364;53.590;9.956;2023-04-27T08:30:29;4.70;;;2.00;;
12597;SDS011;6364;53.590;9.956;2023-04-27T08:32:54;2.10;;;1.90;;
12597;SDS011;6364;53.590;9.956;2023-04-27T08:35:19;5.88;;;2.30;;
12597;SDS011;6364;53.590;9.956;2023-04-27T08:37:44;4.35;;;2.10;;
12597;SDS011;6364;53.590;9.956;2023-04-27T08:40:10;5.00;;;2.60;;
12597;SDS011;6364;53.590;9.956;2023-04-27T08:42:36;4.80;;;2.60;;
12597;SDS011;6364;53.590;9.956;2023-04-27T08:45:01;5.63;;;2.75;;
12597;SDS011;6364;53.590;9.956;2023-04-27T08:47:28;8.30;;;2.47;;
12597;SDS011;6364;53.590;9.956;2023-04-27T08:49:53;7.15;;;2.53;;
12597;SDS011;6364;53.590;9.956;2023-04-27T08:52:19;13.73;;;2.20;;
12597;SDS011;6364;53.590;9.956;2023-04-27T08:54:44;4.75;;;2.15;;
12597;SDS011;6364;53.590;9.956;2023-04-27T08:57:13;8.27;;;2.25;;
12597;SDS011;6364;53.590;9.956;2023-04-27T08:59:39;5.38;;;2.33;;
12597;SDS011;6364;53.590;9.956;2023-04-27T09:02:05;6.32;;;2.42;;
12597;SDS011;6364;53.590;9.956;2023-04-27T09:04:37;6.38;;;2.22;;
12597;SDS011;6364;53.590;9.956;2023-04-27T09:07:10;7.28;;;2.33;;
12597;SDS011;6364;53.590;9.956;2023-04-27T09:09:39;8.55;;;2.60;;
12597;SDS011;6364;53.590;9.956;2023-04-27T09:14:39;6.68;;;2.67;;
12597;SDS011;6364;53.590;9.956;2023-04-27T09:17:05;5.85;;;2.60;;
12597;SDS011;6364;53.590;9.956;2023-04-27T09:19:31;5.15;;;2.53;;
12597;SDS011;6364;53.590;9.956;2023-04-27T09:22:06;5.07;;;2.63;;
12597;SDS011;6364;53.590;9.956;2023-04-27T09:24:32;4.18;;;2.25;;
12597;SDS011;6364;53.590;9.956;2023-04-27T09:26:58;3.50;;;2.20;;
12597;SDS011;6364;53.590;9.956;2023-04-27T09:29:36;4.00;;;2.40;;
12597;SDS011;6364;53.590;9.956;2023-04-27T09:32:12;3.92;;;2.28;;
12597;SDS011;6364;53.590;9.956;2023-04-27T09:34:41;5.28;;;2.45;;
12597;SDS011;6364;53.590;9.956;2023-04-27T09:37:06;5.65;;;2.20;;
12597;SDS011;6364;53.590;9.956;2023-04-27T09:39:32;5.70;;;2.03;;
12597;SDS011;6364;53.590;9.956;2023-04-27T09:41:58;7.38;;;2.33;;
12597;SDS011;6364;53.590;9.956;2023-04-27T09:44:25;4.65;;;2.20;;
12597;SDS011;6364;53.590;9.956;2023-04-27T09:46:50;4.32;;;2.17;;
12597;SDS011;6364;53.590;9.956;2023-04-27T09:49:17;4.43;;;2.28;;
12597;SDS011;6364;53.590;9.956;2023-04-27T09:51:43;4.28;;;2.38;;
12597;SDS011;6364;53.590;9.956;2023-04-27T09:54:08;6.28;;;2.33;;
12597;SDS011;6364;53.590;9.956;2023-04-27T10:02:39;4.65;;;2.58;;
12597;SDS011;6364;53.590;9.956;2023-04-27T10:07:59;8.35;;;3.40;;
12597;SDS011;6364;53.590;9.956;2023-04-27T10:10:28;6.68;;;2.72;;
12597;SDS011;6364;53.590;9.956;2023-04-27T10:12:59;6.82;;;2.40;;
12597;SDS011;6364;53.590;9.956;2023-04-27T10:15:25;3.28;;;2.40;;
12597;SDS011;6364;53.590;9.956;2023-04-27T10:17:52;4.78;;;2.53;;
12597;SDS011;6364;53.590;9.956;2023-04-27T10:20:28;6.97;;;2.33;;
12597;SDS011;6364;53.590;9.956;2023-04-27T10:22:55;2.75;;;2.13;;
12597;SDS011;6364;53.590;9.956;2023-04-27T10:25:21;4.40;;;2.13;;
12597;SDS011;6364;53.590;9.956;2023-04-27T10:27:49;4.53;;;2.38;;
12597;SDS011;6364;53.590;9.956;2023-04-27T10:30:25;7.07;;;2.70;;
12597;SDS011;6364;53.590;9.956;2023-04-27T10:33:04;7.38;;;2.03;;
12597;SDS011;6364;53.590;9.956;2023-04-27T10:35:40;3.35;;;2.65;;
12597;SDS011;6364;53.590;9.956;2023-04-27T10:40:53;5.70;;;2.38;;
12597;SDS011;6364;53.590;9.956;2023-04-27T10:43:23;4.65;;;2.53;;
12597;SDS011;6364;53.590;9.956;2023-04-27T10:45:52;5.68;;;2.50;;
12597;SDS011;6364;53.590;9.956;2023-04-27T10:48:17;7.93;;;2.70;;
12597;SDS011;6364;53.590;9.956;2023-04-27T10:50:43;4.57;;;2.75;;
12597;SDS011;6364;53.590;9.956;2023-04-27T10:53:08;5.80;;;2.60;;
12597;SDS011;6364;53.590;9.956;2023-04-27T10:55:34;6.97;;;3.00;;
12597;SDS011;6364;53.590;9.956;2023-04-27T10:58:00;5.07;;;2.55;;
12597;SDS011;6364;53.590;9.956;2023-04-27T11:00:34;7.00;;;2.60;;
12597;SDS011;6364;53.590;9.956;2023-04-27T11:03:17;5.03;;;2.72;;
12597;SDS011;6364;53.590;9.956;2023-04-27T11:05:45;3.80;;;2.83;;
12597;SDS011;6364;53.590;9.956;2023-04-27T11:08:12;5.82;;;2.85;;
12597;SDS011;6364;53.590;9.956;2023-04-27T11:10:39;6.30;;;3.47;;
12597;SDS011;6364;53.590;9.956;2023-04-27T11:13:14;7.03;;;4.00;;
12597;SDS011;6364;53.590;9.956;2023-04-27T11:15:47;9.35;;;3.53;;
12597;SDS011;6364;53.590;9.956;2023-04-27T11:18:14;8.40;;;3.80;;
12597;SDS011;6364;53.590;9.956;2023-04-27T11:20:42;6.10;;;3.53;;
12597;SDS011;6364;53.590;9.956;2023-04-27T11:23:27;3.85;;;3.22;;
12597;SDS011;6364;53.590;9.956;2023-04-27T11:26:07;5.85;;;2.95;;
12597;SDS011;6364;53.590;9.956;2023-04-27T11:28:35;5.03;;;3.55;;
12597;SDS011;6364;53.590;9.956;2023-04-27T11:31:01;6.72;;;3.70;;
12597;SDS011;6364;53.590;9.956;2023-04-27T11:33:26;4.90;;;3.33;;
12597;SDS011;6364;53.590;9.956;2023-04-27T11:35:52;6.15;;;3.50;;
12597;SDS011;6364;53.590;9.956;2023-04-27T11:38:17;5.32;;;3.30;;
12597;SDS011;6364;53.590;9.956;2023-04-27T11:40:44;5.55;;;2.97;;
12597;SDS011;6364;53.590;9.956;2023-04-27T11:43:11;3.92;;;2.70;;
12597;SDS011;6364;53.590;9.956;2023-04-27T11:45:40;13.48;;;3.70;;
12597;SDS011;6364;53.590;9.956;2023-04-27T11:48:08;7.57;;;3.40;;
12597;SDS011;6364;53.590;9.956;2023-04-27T11:50:37;6.18;;;3.10;;
12597;SDS011;6364;53.590;9.956;2023-04-27T11:53:03;5.38;;;3.00;;
12597;SDS011;6364;53.590;9.956;2023-04-27T11:55:28;5.68;;;3.30;;
12597;SDS011;6364;53.590;9.956;2023-04-27T11:57:55;5.70;;;2.92;;
12597;SDS011;6364;53.590;9.956;2023-04-27T12:00:21;5.03;;;2.95;;
12597;SDS011;6364;53.590;9.956;2023-04-27T12:02:48;3.58;;;2.95;;
12597;SDS011;6364;53.590;9.956;2023-04-27T12:05:13;7.13;;;2.97;;
12597;SDS011;6364;53.590;9.956;2023-04-27T12:07:39;6.68;;;3.33;;
12597;SDS011;6364;53.590;9.956;2023-04-27T12:10:05;7.40;;;3.28;;
12597;SDS011;6364;53.590;9.956;2023-04-27T12:12:31;6.68;;;2.72;;
12597;SDS011;6364;53.590;9.956;2023-04-27T12:14:57;5.43;;;2.58;;
12597;SDS011;6364;53.590;9.956;2023-04-27T12:17:22;3.75;;;2.55;;
12597;SDS011;6364;53.590;9.956;2023-04-27T12:19:48;4.93;;;3.15;;
12597;SDS011;6364;53.590;9.956;2023-04-27T12:22:13;5.88;;;3.08;;
12597;SDS011;6364;53.590;9.956;2023-04-27T12:24:39;12.13;;;3.85;;
12597;SDS011;6364;53.590;9.956;2023-04-27T12:27:04;5.18;;;2.67;;
12597;SDS011;6364;53.590;9.956;2023-04-27T12:29:30;5.38;;;2.80;;
12597;SDS011;6364;53.590;9.956;2023-04-27T12:31:57;4.30;;;2.78;;
12597;SDS011;6364;53.590;9.956;2023-04-27T12:34:22;9.30;;;3.30;;
12597;SDS011;6364;53.590;9.956;2023-04-27T12:36:48;5.03;;;3.05;;
12597;SDS011;6364;53.590;9.956;2023-04-27T12:39:17;5.78;;;3.35;;
12597;SDS011;6364;53.590;9.956;2023-04-27T12:41:44;6.18;;;3.40;;
12597;SDS011;6364;53.590;9.956;2023-04-27T12:44:11;5.57;;;3.60;;
12597;SDS011;6364;53.590;9.956;2023-04-27T12:46:37;4.13;;;3.40;;
12597;SDS011;6364;53.590;9.956;2023-04-27T12:49:02;9.20;;;3.20;;
12597;SDS011;6364;53.590;9.956;2023-04-27T12:51:30;8.63;;;3.40;;
12597;SDS011;6364;53.590;9.956;2023-04-27T12:53:55;6.93;;;3.40;;
12597;SDS011;6364;53.590;9.956;2023-04-27T12:56:20;8.48;;;3.35;;
12597;SDS011;6364;53.590;9.956;2023-04-27T12:58:46;7.55;;;3.63;;
12597;SDS011;6364;53.590;9.956;2023-04-27T13:01:11;6.40;;;3.60;;
12597;SDS011;6364;53.590;9.956;2023-04-27T13:03:40;6.07;;;3.58;;
12597;SDS011;6364;53.590;9.956;2023-04-27T13:06:06;6.22;;;3.97;;
12597;SDS011;6364;53.590;9.956;2023-04-27T13:08:32;4.85;;;3.55;;
12597;SDS011;6364;53.590;9.956;2023-04-27T13:10:58;7.20;;;3.83;;
12597;SDS011;6364;53.590;9.956;2023-04-27T13:13:23;11.43;;;4.20;;
12597;SDS011;6364;53.590;9.956;2023-04-27T13:15:49;9.25;;;4.57;;
12597;SDS011;6364;53.590;9.956;2023-04-27T13:18:14;7.85;;;4.55;;
12597;SDS011;6364;53.590;9.956;2023-04-27T13:20:39;6.97;;;4.75;;
12597;SDS011;6364;53.590;9.956;2023-04-27T13:23:05;10.13;;;5.35;;
12597;SDS011;6364;53.590;9.956;2023-04-27T13:25:30;8.57;;;5.00;;
12597;SDS011;6364;53.590;9.956;2023-04-27T13:27:56;7.28;;;5.18;;
12597;SDS011;6364;53.590;9.956;2023-04-27T13:30:22;10.90;;;5.72;;
12597;SDS011;6364;53.590;9.956;2023-04-27T13:32:47;9.23;;;5.60;;
12597;SDS011;6364;53.590;9.956;2023-04-27T13:35:12;12.93;;;5.43;;
12597;SDS011;6364;53.590;9.956;2023-04-27T13:37:38;6.60;;;5.50;;
12597;SDS011;6364;53.590;9.956;2023-04-27T13:40:06;8.48;;;4.78;;
12597;SDS011;6364;53.590;9.956;2023-04-27T13:42:34;7.93;;;4.80;;
12597;SDS011;6364;53.590;9.956;2023-04-27T13:45:00;10.30;;;5.28;;
12597;SDS011;6364;53.590;9.956;2023-04-27T13:47:26;7.88;;;5.25;;
12597;SDS011;6364;53.590;9.956;2023-04-27T13:49:53;10.35;;;4.47;;
12597;SDS011;6364;53.590;9.956;2023-04-27T13:52:18;8.02;;;5.18;;
12597;SDS011;6364;53.590;9.956;2023-04-27T13:54:44;6.60;;;4.25;;
12597;SDS011;6364;53.590;9.956;2023-04-27T13:57:09;7.25;;;4.82;;
12597;SDS011;6364;53.590;9.956;2023-04-27T13:59:34;7.50;;;4.60;;
12597;SDS011;6364;53.590;9.956;2023-04-27T14:02:00;5.32;;;3.83;;
12597;SDS011;6364;53.590;9.956;2023-04-27T14:04:25;6.20;;;4.30;;
12597;SDS011;6364;53.590;9.956;2023-04-27T14:06:50;9.32;;;4.07;;
12597;SDS011;6364;53.590;9.956;2023-04-27T14:09:16;6.63;;;3.75;;
12597;SDS011;6364;53.590;9.956;2023-04-27T14:11:41;4.93;;;3.75;;
12597;SDS011;6364;53.590;9.956;2023-04-27T14:14:06;6.43;;;3.72;;
12597;SDS011;6364;53.590;9.956;2023-04-27T14:16:32;5.65;;;3.33;;
12597;SDS011;6364;53.590;9.956;2023-04-27T14:18:57;6.47;;;4.05;;
12597;SDS011;6364;53.590;9.956;2023-04-27T14:21:23;7.43;;;3.85;;
12597;SDS011;6364;53.590;9.956;2023-04-27T14:23:48;8.30;;;3.60;;
12597;SDS011;6364;53.590;9.956;2023-04-27T14:26:13;6.57;;;3.35;;
12597;SDS011;6364;53.590;9.956;2023-04-27T14:28:39;4.93;;;3.35;;
12597;SDS011;6364;53.590;9.956;2023-04-27T14:31:04;5.05;;;3.30;;
12597;SDS011;6364;53.590;9.956;2023-04-27T14:33:30;8.23;;;3.90;;
12597;SDS011;6364;53.590;9.956;2023-04-27T14:35:55;4.43;;;3.33;;
12597;SDS011;6364;53.590;9.956;2023-04-27T14:38:20;4.70;;;3.10;;
12597;SDS011;6364;53.590;9.956;2023-04-27T14:40:46;5.70;;;3.55;;
12597;SDS011;6364;53.590;9.956;2023-04-27T14:43:11;8.65;;;3.50;;
12597;SDS011;6364;53.590;9.956;2023-04-27T14:45:37;6.00;;;3.60;;
12597;SDS011;6364;53.590;9.956;2023-04-27T14:48:02;6.05;;;3.50;;
12597;SDS011;6364;53.590;9.956;2023-04-27T14:50:27;5.65;;;3.45;;
12597;SDS011;6364;53.590;9.956;2023-04-27T14:52:53;8.43;;;3.95;;
12597;SDS011;6364;53.590;9.956;2023-04-27T14:55:22;10.15;;;4.13;;
12597;SDS011;6364;53.590;9.956;2023-04-27T14:57:48;8.00;;;4.32;;
12597;SDS011;6364;53.590;9.956;2023-04-27T15:00:14;4.82;;;4.05;;
12597;SDS011;6364;53.590;9.956;2023-04-27T15:02:40;8.10;;;4.78;;